createdAt,value
2019-01-26T00:00:31.992Z,0.86
2019-01-26T00:01:32.185Z,0.87
2019-01-26T00:02:32.430Z,0.83
2019-01-26T00:03:32.676Z,0.84
2019-01-26T00:04:32.932Z,0.88
2019-01-26T00:05:33.195Z,0.88
2019-01-26T00:06:33.623Z,0.89
2019-01-26T00:07:33.914Z,0.89
2019-01-26T00:08:34.363Z,0.89
2019-01-26T00:09:34.878Z,0.91
2019-01-26T00:10:34.641Z,0.92
2019-01-26T00:11:34.871Z,0.92
2019-01-26T00:13:35.136Z,0.91
2019-01-26T00:14:35.452Z,0.91
2019-01-26T00:15:35.796Z,0.88
2019-01-26T00:16:35.947Z,0.90
2019-01-26T00:17:36.184Z,0.89
2019-01-26T00:18:36.450Z,0.85
2019-01-26T00:19:36.718Z,0.89
2019-01-26T00:20:36.976Z,0.89
2019-01-26T00:21:37.212Z,0.86
2019-01-26T00:22:37.467Z,0.88
2019-01-26T00:23:37.801Z,0.90
2019-01-26T00:24:38.107Z,0.91
2019-01-26T00:25:38.378Z,0.92
2019-01-26T00:26:38.632Z,0.90
2019-01-26T00:27:38.893Z,0.93
2019-01-26T00:28:39.160Z,0.90
2019-01-26T00:29:39.422Z,0.88
2019-01-26T00:30:39.753Z,0.88
2019-01-26T00:31:40.244Z,0.89
2019-01-26T00:32:40.819Z,0.86
2019-01-26T00:33:43.203Z,0.88
2019-01-26T00:34:40.977Z,0.88
2019-01-26T00:35:41.101Z,0.90
2019-01-26T00:36:41.222Z,0.89
2019-01-26T00:37:41.335Z,0.91
2019-01-26T00:38:41.443Z,0.89
2019-01-26T00:39:41.688Z,0.88
2019-01-26T00:40:41.798Z,0.90
2019-01-26T00:41:41.913Z,0.89
2019-01-26T00:42:42.039Z,0.89
2019-01-26T00:43:42.117Z,0.90
2019-01-26T00:44:42.220Z,0.89
2019-01-26T00:45:42.313Z,0.87
2019-01-26T00:46:42.431Z,0.91
2019-01-26T00:48:42.529Z,0.92
2019-01-26T00:49:42.627Z,0.95
2019-01-26T00:50:42.729Z,0.91
2019-01-26T00:51:42.851Z,0.93
2019-01-26T00:52:42.963Z,0.93
2019-01-26T00:53:43.029Z,0.89
2019-01-26T00:54:43.135Z,0.90
2019-01-26T00:55:43.184Z,0.90
2019-01-26T00:56:43.224Z,0.93
2019-01-26T00:57:43.312Z,0.94
2019-01-26T00:58:43.325Z,0.91
2019-01-26T00:59:43.392Z,0.93
2019-01-26T01:00:43.441Z,0.91
2019-01-26T01:01:43.496Z,0.95
2019-01-26T01:02:43.511Z,0.95
2019-01-26T01:03:43.551Z,0.95
2019-01-26T01:04:43.573Z,0.96
2019-01-26T01:05:43.594Z,0.91
2019-01-26T01:06:43.647Z,0.91
2019-01-26T01:07:43.801Z,0.95
2019-01-26T01:08:43.870Z,0.97
2019-01-26T01:09:44.006Z,0.94
2019-01-26T01:10:44.011Z,0.95
2019-01-26T01:11:44.086Z,0.92
2019-01-26T01:12:44.161Z,0.93
2019-01-26T01:13:44.214Z,0.96
2019-01-26T01:14:44.303Z,0.96
2019-01-26T01:15:44.341Z,0.99
2019-01-26T01:16:44.412Z,0.99
2019-01-26T01:17:44.454Z,0.93
2019-01-26T01:18:44.504Z,0.94
2019-01-26T01:19:44.535Z,0.96
2019-01-26T01:20:44.599Z,0.99
2019-01-26T01:21:44.692Z,1.01
2019-01-26T01:22:44.673Z,0.99
2019-01-26T01:23:44.790Z,0.97
2019-01-26T01:24:44.793Z,1.01
2019-01-26T01:25:44.823Z,1.01
2019-01-26T01:26:44.855Z,1.03
2019-01-26T01:27:44.901Z,1.02
2019-01-26T01:28:44.932Z,1.01
2019-01-26T01:29:44.953Z,1.01
2019-01-26T01:30:44.983Z,0.98
2019-01-26T01:31:45.007Z,0.97
2019-01-26T01:32:45.059Z,0.96
2019-01-26T01:33:45.088Z,0.98
2019-01-26T01:34:45.204Z,0.99
2019-01-26T01:35:45.173Z,1.02
2019-01-26T01:36:45.216Z,1.02
2019-01-26T01:37:45.275Z,1.01
2019-01-26T01:38:45.367Z,1.01
2019-01-26T01:39:45.422Z,1.02
2019-01-26T01:40:45.480Z,1.02
2019-01-26T01:41:45.513Z,1.00
2019-01-26T01:42:45.549Z,1.00
2019-01-26T01:43:45.587Z,1.02
2019-01-26T01:44:45.839Z,1.01
2019-01-26T01:45:45.854Z,1.03
2019-01-26T01:46:46.184Z,1.01
2019-01-26T01:47:46.477Z,1.01
2019-01-26T01:48:46.846Z,1.02
2019-01-26T01:49:47.070Z,1.03
2019-01-26T01:50:47.330Z,1.01
2019-01-26T01:51:47.843Z,1.01
2019-01-26T01:52:47.596Z,1.04
2019-01-26T01:53:47.819Z,1.06
2019-01-26T01:54:48.259Z,1.06
2019-01-26T01:55:48.510Z,1.07
2019-01-26T01:56:48.748Z,1.06
2019-01-26T01:57:48.999Z,1.07
2019-01-26T01:58:49.308Z,1.08
2019-01-26T01:59:49.748Z,1.09
2019-01-26T02:00:50.052Z,1.06
2019-01-26T02:01:50.462Z,1.05
2019-01-26T02:02:50.736Z,1.05
2019-01-26T02:03:51.065Z,1.03
2019-01-26T02:04:51.418Z,1.05
2019-01-26T02:05:51.803Z,1.05
2019-01-26T02:06:52.057Z,1.06
2019-01-26T02:07:52.525Z,1.11
2019-01-26T02:08:52.919Z,1.09
2019-01-26T02:09:53.179Z,1.09
2019-01-26T02:10:53.506Z,1.09
2019-01-26T02:11:53.749Z,1.12
2019-01-26T02:12:53.993Z,1.13
2019-01-26T02:13:54.224Z,1.12
2019-01-26T02:14:54.628Z,1.14
2019-01-26T02:15:54.887Z,1.11
2019-01-26T02:16:55.384Z,1.11
2019-01-26T02:17:55.927Z,1.15
2019-01-26T02:18:56.049Z,1.16
2019-01-26T02:19:56.147Z,1.17
2019-01-26T02:20:56.308Z,1.19
2019-01-26T02:21:56.417Z,1.16
2019-01-26T02:22:56.527Z,1.15
2019-01-26T02:23:56.613Z,1.15
2019-01-26T02:24:56.712Z,1.18
2019-01-26T02:25:56.860Z,1.17
2019-01-26T02:26:56.931Z,1.19
2019-01-26T02:27:57.030Z,1.18
2019-01-26T02:28:57.123Z,1.18
2019-01-26T02:29:57.259Z,1.19
2019-01-26T02:30:57.361Z,1.22
2019-01-26T02:31:57.473Z,1.19
2019-01-26T02:32:57.568Z,1.19
2019-01-26T02:33:57.697Z,1.21
2019-01-26T02:34:57.796Z,1.22
2019-01-26T02:35:57.904Z,1.25
2019-01-26T02:36:57.971Z,1.23
2019-01-26T02:37:58.069Z,1.23
2019-01-26T02:38:58.136Z,1.24
2019-01-26T02:39:58.176Z,1.25
2019-01-26T02:40:58.191Z,1.27
2019-01-26T02:41:58.218Z,1.25
2019-01-26T02:42:58.296Z,1.24
2019-01-26T02:43:58.234Z,1.25
2019-01-26T02:44:58.853Z,1.25
2019-01-26T02:45:58.897Z,1.29
2019-01-26T02:46:59.008Z,1.31
2019-01-26T02:47:59.066Z,1.29
2019-01-26T02:48:59.137Z,1.32
2019-01-26T02:49:59.208Z,1.32
2019-01-26T02:50:59.262Z,1.31
2019-01-26T02:51:59.319Z,1.35
2019-01-26T02:52:59.375Z,1.35
2019-01-26T02:53:59.436Z,1.35
2019-01-26T02:54:59.481Z,1.35
2019-01-26T02:55:59.528Z,1.35
2019-01-26T02:56:59.561Z,1.36
2019-01-26T02:57:59.599Z,1.38
2019-01-26T02:58:59.639Z,1.38
2019-01-26T02:59:59.688Z,1.38
2019-01-26T03:00:59.721Z,1.39
2019-01-26T03:01:59.754Z,1.40
2019-01-26T03:02:59.801Z,1.39
2019-01-26T03:03:59.856Z,1.41
2019-01-26T03:04:59.948Z,1.40
2019-01-26T03:06:00.260Z,1.41
2019-01-26T03:07:00.325Z,1.44
2019-01-26T03:08:00.427Z,1.43
2019-01-26T03:09:00.489Z,1.44
2019-01-26T03:10:00.574Z,1.45
2019-01-26T03:11:00.929Z,1.45
2019-01-26T03:12:00.970Z,1.45
2019-01-26T03:13:00.945Z,1.48
2019-01-26T03:14:01.228Z,1.48
2019-01-26T03:15:01.614Z,1.49
2019-01-26T03:16:02.290Z,1.49
2019-01-26T03:17:06.187Z,1.49
2019-01-26T03:18:02.487Z,1.50
2019-01-26T03:19:03.064Z,1.50
2019-01-26T03:20:03.156Z,1.51
2019-01-26T03:21:03.295Z,1.50
2019-01-26T03:22:03.344Z,1.48
2019-01-26T03:23:03.440Z,1.52
2019-01-26T03:24:03.496Z,1.51
2019-01-26T03:25:03.255Z,1.54
2019-01-26T03:26:03.624Z,1.52
2019-01-26T03:27:04.127Z,1.53
2019-01-26T03:28:04.368Z,1.54
2019-01-26T03:29:04.918Z,1.54
2019-01-26T03:30:04.967Z,1.55
2019-01-26T03:31:05.132Z,1.55
2019-01-26T03:32:05.355Z,1.55
2019-01-26T03:33:05.710Z,1.57
2019-01-26T03:34:06.138Z,1.58
2019-01-26T03:35:06.489Z,1.57
2019-01-26T03:36:06.732Z,1.56
2019-01-26T03:37:07.066Z,1.57
2019-01-26T03:38:07.542Z,1.59
2019-01-26T03:39:07.750Z,1.58
2019-01-26T03:40:07.995Z,1.58
2019-01-26T03:41:08.294Z,1.59
2019-01-26T03:42:08.657Z,1.58
2019-01-26T03:43:09.080Z,1.58
2019-01-26T03:44:09.461Z,1.59
2019-01-26T03:45:09.986Z,1.61
2019-01-26T03:46:09.771Z,1.63
2019-01-26T03:47:13.793Z,1.64
2019-01-26T03:48:10.744Z,1.64
2019-01-26T03:49:10.815Z,1.65
2019-01-26T03:50:10.896Z,1.66
2019-01-26T03:51:11.057Z,1.66
2019-01-26T03:52:11.131Z,1.67
2019-01-26T03:53:11.243Z,1.67
2019-01-26T03:54:11.353Z,1.66
2019-01-26T03:55:11.464Z,1.68
2019-01-26T03:56:11.478Z,1.65
2019-01-26T03:57:11.576Z,1.67
2019-01-26T03:58:11.688Z,1.67
2019-01-26T03:59:11.798Z,1.68
2019-01-26T04:01:11.927Z,1.68
2019-01-26T04:02:12.021Z,1.72
2019-01-26T04:03:12.128Z,1.72
2019-01-26T04:04:12.248Z,1.73
2019-01-26T04:05:12.505Z,1.73
2019-01-26T04:06:12.743Z,1.75
2019-01-26T04:07:12.893Z,1.76
2019-01-26T04:08:13.084Z,1.72
2019-01-26T04:09:13.125Z,1.76
2019-01-26T04:10:13.171Z,1.77
2019-01-26T04:11:13.236Z,1.75
2019-01-26T04:12:13.351Z,1.75
2019-01-26T04:13:13.354Z,1.72
2019-01-26T04:14:13.377Z,1.71
2019-01-26T04:15:13.551Z,1.75
2019-01-26T04:16:14.015Z,1.72
2019-01-26T04:17:21.610Z,1.70
2019-01-26T04:18:14.239Z,1.69
2019-01-26T04:19:14.296Z,1.70
2019-01-26T04:20:14.430Z,1.72
2019-01-26T04:21:14.815Z,1.71
2019-01-26T04:22:14.857Z,1.71
2019-01-26T04:23:14.888Z,1.74
2019-01-26T04:24:14.924Z,1.73
2019-01-26T04:25:15.014Z,1.71
2019-01-26T04:26:15.168Z,1.72
2019-01-26T04:27:15.196Z,1.74
2019-01-26T04:28:15.261Z,1.76
2019-01-26T04:29:15.346Z,1.78
2019-01-26T04:30:15.476Z,1.76
2019-01-26T04:31:15.688Z,1.78
2019-01-26T04:32:15.733Z,1.77
2019-01-26T04:33:15.777Z,1.81
2019-01-26T04:34:15.869Z,1.81
2019-01-26T04:35:15.793Z,1.83
2019-01-26T04:36:16.165Z,1.87
2019-01-26T04:37:16.522Z,1.88
2019-01-26T04:38:16.779Z,1.85
2019-01-26T04:39:17.079Z,1.86
2019-01-26T04:40:17.669Z,1.88
2019-01-26T04:41:17.440Z,1.90
2019-01-26T04:42:17.687Z,1.85
2019-01-26T04:43:17.947Z,1.89
2019-01-26T04:44:18.194Z,1.87
2019-01-26T04:45:18.743Z,1.92
2019-01-26T04:46:18.739Z,1.90
2019-01-26T04:47:18.999Z,1.95
2019-01-26T04:48:19.227Z,1.95
2019-01-26T04:49:19.579Z,1.96
2019-01-26T04:50:19.893Z,1.97
2019-01-26T04:51:20.141Z,1.98
2019-01-26T04:52:20.374Z,1.99
2019-01-26T04:53:20.855Z,2.00
2019-01-26T04:54:21.105Z,1.97
2019-01-26T04:55:21.390Z,1.92
2019-01-26T04:56:21.645Z,1.97
2019-01-26T04:57:21.892Z,1.98
2019-01-26T04:58:22.130Z,1.96
2019-01-26T04:59:22.480Z,1.96
2019-01-26T05:00:22.736Z,1.95
2019-01-26T05:01:22.855Z,1.96
2019-01-26T05:02:23.254Z,1.96
2019-01-26T05:03:23.746Z,1.94
2019-01-26T05:04:24.003Z,1.96
2019-01-26T05:05:24.250Z,1.98
2019-01-26T05:06:24.684Z,1.99
2019-01-26T05:07:25.015Z,1.99
2019-01-26T05:08:25.608Z,1.98
2019-01-26T05:09:25.670Z,1.93
2019-01-26T05:10:25.719Z,1.96
2019-01-26T05:11:25.827Z,1.98
2019-01-26T05:12:25.931Z,1.97
2019-01-26T05:13:26.015Z,1.98
2019-01-26T05:14:26.146Z,1.97
2019-01-26T05:15:26.266Z,1.98
2019-01-26T05:16:26.359Z,2.03
2019-01-26T05:17:26.477Z,2.03
2019-01-26T05:18:26.605Z,2.03
2019-01-26T05:19:26.720Z,2.03
2019-01-26T05:20:26.835Z,2.05
2019-01-26T05:21:26.923Z,2.05
2019-01-26T05:22:27.028Z,2.05
2019-01-26T05:23:27.227Z,2.05
2019-01-26T05:24:27.341Z,2.05
2019-01-26T05:25:27.492Z,2.04
2019-01-26T05:26:27.735Z,2.01
2019-01-26T05:27:27.846Z,2.02
2019-01-26T05:28:27.930Z,1.99
2019-01-26T05:29:28.069Z,1.99
2019-01-26T05:30:28.309Z,2.02
2019-01-26T05:31:28.303Z,2.03
2019-01-26T05:33:28.478Z,2.04
2019-01-26T05:34:28.497Z,2.04
2019-01-26T05:35:28.552Z,2.04
2019-01-26T05:36:28.756Z,2.03
2019-01-26T05:37:28.827Z,2.00
2019-01-26T05:38:28.935Z,2.04
2019-01-26T05:39:29.156Z,2.05
2019-01-26T05:40:29.215Z,2.04
2019-01-26T05:41:29.295Z,2.06
2019-01-26T05:42:29.386Z,2.06
2019-01-26T05:43:29.448Z,2.06
2019-01-26T05:44:29.494Z,2.07
2019-01-26T05:45:29.532Z,2.07
2019-01-26T05:46:29.604Z,2.08
2019-01-26T05:47:29.651Z,2.09
2019-01-26T05:48:29.691Z,2.09
2019-01-26T05:49:29.812Z,2.12
2019-01-26T05:50:29.873Z,2.11
2019-01-26T05:51:29.928Z,2.12
2019-01-26T05:52:29.972Z,2.12
2019-01-26T05:53:30.008Z,2.14
2019-01-26T05:54:30.052Z,2.12
2019-01-26T05:55:30.094Z,2.13
2019-01-26T05:56:30.157Z,2.13
2019-01-26T05:57:30.193Z,2.15
2019-01-26T05:58:30.247Z,2.13
2019-01-26T05:59:30.285Z,2.14
2019-01-26T06:00:30.315Z,2.14
2019-01-26T06:01:30.566Z,2.14
2019-01-26T06:02:30.611Z,2.14
2019-01-26T06:03:30.656Z,2.13
2019-01-26T06:04:30.715Z,2.13
2019-01-26T06:05:30.754Z,2.14
2019-01-26T06:06:30.810Z,2.14
2019-01-26T06:07:30.852Z,2.15
2019-01-26T06:08:30.938Z,2.16
2019-01-26T06:09:30.960Z,2.16
2019-01-26T06:10:30.898Z,2.16
2019-01-26T06:11:31.605Z,2.17
2019-01-26T06:12:31.708Z,2.17
2019-01-26T06:13:31.718Z,2.16
2019-01-26T06:14:31.985Z,2.18
2019-01-26T06:15:32.252Z,2.17
2019-01-26T06:16:32.511Z,2.18
2019-01-26T06:17:32.766Z,2.19
2019-01-26T06:18:33.346Z,2.17
2019-01-26T06:19:33.176Z,2.21
2019-01-26T06:20:33.455Z,2.21
2019-01-26T06:21:33.872Z,2.22
2019-01-26T06:22:34.274Z,2.22
2019-01-26T06:23:34.186Z,2.23
2019-01-26T06:24:34.619Z,2.24
2019-01-26T06:25:34.881Z,2.25
2019-01-26T06:26:35.359Z,2.24
2019-01-26T06:27:35.872Z,2.27
2019-01-26T06:28:36.006Z,2.27
2019-01-26T06:29:35.836Z,2.30
2019-01-26T06:30:36.328Z,2.29
2019-01-26T06:31:36.120Z,2.32
2019-01-26T06:32:36.572Z,2.33
2019-01-26T06:33:36.840Z,2.34
2019-01-26T06:34:37.138Z,2.36
2019-01-26T06:35:37.521Z,2.36
2019-01-26T06:36:37.800Z,2.39
2019-01-26T06:37:38.057Z,2.41
2019-01-26T06:38:38.627Z,2.39
2019-01-26T06:39:38.502Z,2.41
2019-01-26T06:40:38.810Z,2.43
2019-01-26T06:41:39.124Z,2.44
2019-01-26T06:42:39.541Z,2.44
2019-01-26T06:43:39.846Z,2.45
2019-01-26T06:44:40.296Z,2.46
2019-01-26T06:45:40.904Z,2.47
2019-01-26T06:46:40.965Z,2.47
2019-01-26T06:47:41.073Z,2.48
2019-01-26T06:48:41.220Z,2.49
2019-01-26T06:49:41.432Z,2.47
2019-01-26T06:50:41.591Z,2.49
2019-01-26T06:51:41.722Z,2.50
2019-01-26T06:52:41.767Z,2.50
2019-01-26T06:53:41.902Z,2.52
2019-01-26T06:54:42.073Z,2.53
2019-01-26T06:55:42.221Z,2.55
2019-01-26T06:56:42.391Z,2.57
2019-01-26T06:57:42.502Z,2.57
2019-01-26T06:58:42.613Z,2.58
2019-01-26T06:59:42.781Z,2.59
2019-01-26T07:00:42.903Z,2.60
2019-01-26T07:01:43.091Z,2.59
2019-01-26T07:02:43.157Z,2.61
2019-01-26T07:03:43.265Z,2.61
2019-01-26T07:04:43.363Z,2.63
2019-01-26T07:05:43.448Z,2.62
2019-01-26T07:06:43.859Z,2.65
2019-01-26T07:07:44.138Z,2.64
2019-01-26T07:08:44.267Z,2.65
2019-01-26T07:09:44.371Z,2.67
2019-01-26T07:10:44.486Z,2.67
2019-01-26T07:11:44.573Z,2.69
2019-01-26T07:12:44.763Z,2.67
2019-01-26T07:13:44.840Z,2.69
2019-01-26T07:14:44.925Z,2.70
2019-01-26T07:15:45.048Z,2.71
2019-01-26T07:16:45.131Z,2.71
2019-01-26T07:17:45.211Z,2.73
2019-01-26T07:18:45.270Z,2.73
2019-01-26T07:19:45.446Z,2.72
2019-01-26T07:20:45.848Z,2.74
2019-01-26T07:21:45.953Z,2.75
2019-01-26T07:22:46.030Z,2.75
2019-01-26T07:23:46.186Z,2.76
2019-01-26T07:24:46.171Z,2.75
2019-01-26T07:25:46.114Z,2.77
2019-01-26T07:26:46.428Z,2.76
2019-01-26T07:27:46.701Z,2.77
2019-01-26T07:28:46.964Z,2.78
2019-01-26T07:29:47.244Z,2.79
2019-01-26T07:30:47.525Z,2.75
2019-01-26T07:31:47.788Z,2.78
2019-01-26T07:32:48.154Z,2.77
2019-01-26T07:33:48.395Z,2.79
2019-01-26T07:34:48.917Z,2.78
2019-01-26T07:35:48.845Z,2.76
2019-01-26T07:37:49.129Z,2.75
2019-01-26T07:38:49.577Z,2.80
2019-01-26T07:39:49.885Z,2.81
2019-01-26T07:40:50.166Z,2.76
2019-01-26T07:41:50.530Z,2.78
2019-01-26T07:42:50.815Z,2.76
2019-01-26T07:43:51.086Z,2.77
2019-01-26T07:44:51.438Z,2.79
2019-01-26T07:45:51.726Z,2.75
2019-01-26T07:46:52.115Z,2.75
2019-01-26T07:47:52.514Z,2.78
2019-01-26T07:48:52.773Z,2.78
2019-01-26T07:49:53.049Z,2.80
2019-01-26T07:50:53.402Z,2.78
2019-01-26T07:51:53.734Z,2.77
2019-01-26T07:52:54.033Z,2.73
2019-01-26T07:53:54.338Z,2.77
2019-01-26T07:54:54.869Z,2.83
2019-01-26T07:55:54.829Z,2.85
2019-01-26T07:56:55.289Z,2.80
2019-01-26T07:57:55.939Z,2.79
2019-01-26T07:58:56.038Z,2.84
2019-01-26T07:59:56.189Z,2.86
2019-01-26T08:00:56.299Z,2.84
2019-01-26T08:01:56.420Z,2.86
2019-01-26T08:02:59.555Z,2.84
2019-01-26T08:03:56.691Z,2.90
2019-01-26T08:04:56.838Z,2.89
2019-01-26T08:05:56.950Z,2.93
2019-01-26T08:06:57.078Z,2.91
2019-01-26T08:07:57.305Z,2.95
2019-01-26T08:08:57.522Z,2.96
2019-01-26T08:09:57.696Z,2.99
2019-01-26T08:10:57.893Z,2.99
2019-01-26T08:11:57.966Z,2.98
2019-01-26T08:13:58.056Z,3.01
2019-01-26T08:14:58.177Z,3.06
2019-01-26T08:15:58.230Z,3.03
2019-01-26T08:16:58.344Z,3.05
2019-01-26T08:17:58.480Z,2.98
2019-01-26T08:18:58.742Z,3.06
2019-01-26T08:19:58.879Z,3.07
2019-01-26T08:20:59.044Z,3.05
2019-01-26T08:21:59.181Z,3.06
2019-01-26T08:22:59.287Z,3.06
2019-01-26T08:23:59.382Z,3.08
2019-01-26T08:24:59.467Z,3.11
2019-01-26T08:25:59.541Z,3.05
2019-01-26T08:26:59.649Z,3.09
2019-01-26T08:27:59.744Z,3.11
2019-01-26T08:28:59.838Z,3.12
2019-01-26T08:29:59.883Z,3.13
2019-01-26T08:30:59.975Z,3.14
2019-01-26T08:32:00.059Z,3.11
2019-01-26T08:33:00.147Z,3.08
2019-01-26T08:34:00.259Z,3.16
2019-01-26T08:36:00.388Z,3.19
2019-01-26T08:37:00.499Z,3.14
2019-01-26T08:38:00.606Z,3.17
2019-01-26T08:39:00.723Z,3.21
2019-01-26T08:40:00.877Z,3.22
2019-01-26T08:41:01.371Z,3.20
2019-01-26T08:42:01.350Z,3.24
2019-01-26T08:43:01.758Z,3.23
2019-01-26T08:44:01.817Z,3.25
2019-01-26T08:45:02.045Z,3.25
2019-01-26T08:46:02.140Z,3.25
2019-01-26T08:47:02.829Z,3.24
2019-01-26T08:48:02.882Z,3.25
2019-01-26T08:49:03.117Z,3.26
2019-01-26T08:50:03.219Z,3.29
2019-01-26T08:51:03.222Z,3.31
2019-01-26T08:52:03.835Z,3.34
2019-01-26T08:53:03.653Z,3.34
2019-01-26T08:54:04.004Z,3.37
2019-01-26T08:55:04.392Z,3.39
2019-01-26T08:56:04.880Z,3.39
2019-01-26T08:57:05.153Z,3.41
2019-01-26T08:58:05.589Z,3.42
2019-01-26T08:59:05.902Z,3.44
2019-01-26T09:00:06.181Z,3.45
2019-01-26T09:01:06.285Z,3.45
2019-01-26T09:02:06.841Z,3.46
2019-01-26T09:03:06.966Z,3.49
2019-01-26T09:04:07.420Z,3.50
2019-01-26T09:05:07.603Z,3.50
2019-01-26T09:06:07.879Z,3.52
2019-01-26T09:07:08.072Z,3.54
2019-01-26T09:08:08.631Z,3.56
2019-01-26T09:09:08.502Z,3.57
2019-01-26T09:10:08.684Z,3.59
2019-01-26T09:11:08.996Z,3.60
2019-01-26T09:12:09.421Z,3.61
2019-01-26T09:13:09.701Z,3.61
2019-01-26T09:14:10.060Z,3.62
2019-01-26T09:15:10.703Z,3.66
2019-01-26T09:16:10.791Z,3.67
2019-01-26T09:17:10.992Z,3.68
2019-01-26T09:18:11.108Z,3.68
2019-01-26T09:19:11.422Z,3.69
2019-01-26T09:20:11.811Z,3.71
2019-01-26T09:21:11.752Z,3.71
2019-01-26T09:22:11.982Z,3.73
2019-01-26T09:23:12.156Z,3.74
2019-01-26T09:24:12.292Z,3.73
2019-01-26T09:25:12.442Z,3.73
2019-01-26T09:26:12.600Z,3.74
2019-01-26T09:27:12.755Z,3.75
2019-01-26T09:28:12.847Z,3.75
2019-01-26T09:29:12.993Z,3.73
2019-01-26T09:30:13.037Z,3.73
2019-01-26T09:31:13.159Z,3.72
2019-01-26T09:32:13.291Z,3.69
2019-01-26T09:33:13.412Z,3.67
2019-01-26T09:34:13.511Z,3.63
2019-01-26T09:35:13.577Z,3.63
2019-01-26T09:36:13.680Z,3.62
2019-01-26T09:37:13.778Z,3.61
2019-01-26T09:38:13.997Z,3.63
2019-01-26T09:39:14.082Z,3.60
2019-01-26T09:40:14.202Z,3.60
2019-01-26T09:41:14.334Z,3.61
2019-01-26T09:42:14.453Z,3.61
2019-01-26T09:43:14.613Z,3.61
2019-01-26T09:44:14.811Z,3.61
2019-01-26T09:45:14.947Z,3.61
2019-01-26T09:46:15.050Z,3.60
2019-01-26T09:47:15.193Z,3.60
2019-01-26T09:48:15.348Z,3.60
2019-01-26T09:49:15.402Z,3.60
2019-01-26T09:50:15.508Z,3.59
2019-01-26T09:51:15.929Z,3.59
2019-01-26T09:52:16.139Z,3.59
2019-01-26T09:53:16.121Z,3.60
2019-01-26T09:54:16.510Z,3.60
2019-01-26T09:55:17.056Z,3.60
2019-01-26T09:56:16.854Z,3.61
2019-01-26T09:57:17.118Z,3.61
2019-01-26T09:58:17.569Z,3.61
2019-01-26T09:59:18.056Z,3.62
2019-01-26T10:00:18.314Z,3.62
2019-01-26T10:01:18.861Z,3.63
2019-01-26T10:02:18.618Z,3.64
2019-01-26T10:03:18.963Z,3.64
2019-01-26T10:04:19.499Z,3.65
2019-01-26T10:05:19.228Z,3.66
2019-01-26T10:06:19.681Z,3.65
2019-01-26T10:07:19.996Z,3.66
2019-01-26T10:08:20.357Z,3.67
2019-01-26T10:09:20.786Z,3.67
2019-01-26T10:10:21.059Z,3.68
2019-01-26T10:11:21.364Z,3.69
2019-01-26T10:12:21.899Z,3.70
2019-01-26T10:13:21.663Z,3.70
2019-01-26T10:14:21.972Z,3.71
2019-01-26T10:15:22.268Z,3.72
2019-01-26T10:16:22.646Z,3.71
2019-01-26T10:17:22.935Z,3.71
2019-01-26T10:18:23.218Z,3.72
2019-01-26T10:19:23.505Z,3.72
2019-01-26T10:20:23.783Z,3.71
2019-01-26T10:21:23.962Z,3.72
2019-01-26T10:22:25.639Z,3.73
2019-01-26T10:23:24.671Z,3.72
2019-01-26T10:24:24.977Z,3.73
2019-01-26T10:25:25.657Z,3.74
2019-01-26T10:26:25.753Z,3.75
2019-01-26T10:27:25.823Z,3.76
2019-01-26T10:28:25.959Z,3.78
2019-01-26T10:29:26.122Z,3.80
2019-01-26T10:30:26.337Z,3.81
2019-01-26T10:31:26.317Z,3.83
2019-01-26T10:32:26.424Z,3.85
2019-01-26T10:33:26.542Z,3.87
2019-01-26T10:34:26.712Z,3.88
2019-01-26T10:35:26.817Z,3.89
2019-01-26T10:36:27.133Z,3.89
2019-01-26T10:38:27.219Z,3.90
2019-01-26T10:39:27.415Z,3.92
2019-01-26T10:40:27.661Z,3.93
2019-01-26T10:41:27.789Z,3.95
2019-01-26T10:42:28.181Z,3.96
2019-01-26T10:43:28.667Z,3.97
2019-01-26T10:44:28.965Z,3.98
2019-01-26T10:45:29.251Z,4.01
2019-01-26T10:46:29.416Z,4.01
2019-01-26T10:47:29.497Z,4.02
2019-01-26T10:48:29.591Z,4.04
2019-01-26T10:49:29.661Z,4.05
2019-01-26T10:50:29.747Z,4.09
2019-01-26T10:51:29.864Z,4.11
2019-01-26T10:52:29.968Z,4.12
2019-01-26T10:53:30.030Z,4.13
2019-01-26T10:54:30.313Z,4.14
2019-01-26T10:55:30.413Z,4.15
2019-01-26T10:56:30.549Z,4.16
2019-01-26T10:57:30.883Z,4.19
2019-01-26T10:58:30.937Z,4.21
2019-01-26T10:59:31.096Z,4.22
2019-01-26T11:00:31.216Z,4.25
2019-01-26T11:01:31.326Z,4.26
2019-01-26T11:02:31.206Z,4.28
2019-01-26T11:03:31.544Z,4.30
2019-01-26T11:04:31.890Z,4.33
2019-01-26T11:05:32.180Z,4.36
2019-01-26T11:06:32.715Z,4.40
2019-01-26T11:07:32.789Z,4.42
2019-01-26T11:08:32.831Z,4.45
2019-01-26T11:09:32.842Z,4.45
2019-01-26T11:10:32.619Z,4.47
2019-01-26T11:11:32.937Z,4.49
2019-01-26T11:12:33.454Z,4.50
2019-01-26T11:13:33.218Z,4.53
2019-01-26T11:14:33.646Z,4.56
2019-01-26T11:15:33.914Z,4.59
2019-01-26T11:16:34.394Z,4.62
2019-01-26T11:17:34.655Z,4.65
2019-01-26T11:18:35.210Z,4.68
2019-01-26T11:19:35.317Z,4.70
2019-01-26T11:20:35.099Z,4.70
2019-01-26T11:21:35.461Z,4.70
2019-01-26T11:22:35.772Z,4.69
2019-01-26T11:23:36.043Z,4.69
2019-01-26T11:24:36.369Z,4.70
2019-01-26T11:25:36.610Z,4.70
2019-01-26T11:26:36.921Z,4.72
2019-01-26T11:27:37.263Z,4.72
2019-01-26T11:28:37.536Z,4.74
2019-01-26T11:29:37.985Z,4.77
2019-01-26T11:30:38.527Z,4.80
2019-01-26T11:31:38.502Z,4.82
2019-01-26T11:32:39.045Z,4.85
2019-01-26T11:33:38.813Z,4.87
2019-01-26T11:34:39.063Z,4.90
2019-01-26T11:35:39.460Z,4.90
2019-01-26T11:36:39.759Z,4.91
2019-01-26T11:37:40.385Z,4.93
2019-01-26T11:38:40.491Z,4.94
2019-01-26T11:39:40.652Z,4.96
2019-01-26T11:40:40.769Z,4.96
2019-01-26T11:41:40.936Z,4.98
2019-01-26T11:42:41.071Z,5.00
2019-01-26T11:43:41.192Z,5.00
2019-01-26T11:44:41.370Z,5.01
2019-01-26T11:45:41.696Z,5.02
2019-01-26T11:46:42.034Z,5.04
2019-01-26T11:47:42.142Z,5.05
2019-01-26T11:48:42.501Z,5.05
2019-01-26T11:49:42.506Z,5.06
2019-01-26T11:50:42.668Z,5.07
2019-01-26T11:51:42.999Z,5.08
2019-01-26T11:52:43.243Z,5.10
2019-01-26T11:53:43.327Z,5.13
2019-01-26T11:54:43.397Z,5.14
2019-01-26T11:55:43.593Z,5.15
2019-01-26T11:56:43.693Z,5.16
2019-01-26T11:57:44.087Z,5.17
2019-01-26T11:58:44.208Z,5.18
2019-01-26T11:59:44.318Z,5.19
2019-01-26T12:00:44.542Z,5.19
2019-01-26T12:01:44.804Z,5.21
2019-01-26T12:02:45.039Z,5.23
2019-01-26T12:03:45.157Z,5.24
2019-01-26T12:04:45.194Z,5.26
2019-01-26T12:05:45.380Z,5.28
2019-01-26T12:06:45.559Z,5.30
2019-01-26T12:07:46.085Z,5.28
2019-01-26T12:08:46.130Z,5.29
2019-01-26T12:09:46.232Z,5.32
2019-01-26T12:10:46.294Z,5.30
2019-01-26T12:11:46.210Z,5.32
2019-01-26T12:12:46.510Z,5.34
2019-01-26T12:13:46.895Z,5.36
2019-01-26T12:14:47.176Z,5.38
2019-01-26T12:15:47.586Z,5.39
2019-01-26T12:16:47.856Z,5.41
2019-01-26T12:17:48.280Z,5.43
2019-01-26T12:18:48.760Z,5.46
2019-01-26T12:19:48.755Z,5.49
2019-01-26T12:20:49.050Z,5.51
2019-01-26T12:21:49.352Z,5.54
2019-01-26T12:22:49.870Z,5.56
2019-01-26T12:23:49.810Z,5.58
2019-01-26T12:24:50.077Z,5.60
2019-01-26T12:25:50.478Z,5.61
2019-01-26T12:26:50.752Z,5.61
2019-01-26T12:27:51.074Z,5.63
2019-01-26T12:28:51.386Z,5.65
2019-01-26T12:29:51.759Z,5.67
2019-01-26T12:30:52.025Z,5.68
2019-01-26T12:31:52.402Z,5.70
2019-01-26T12:32:52.695Z,5.69
2019-01-26T12:33:53.019Z,5.70
2019-01-26T12:34:53.387Z,5.72
2019-01-26T12:35:53.717Z,5.74
2019-01-26T12:36:53.999Z,5.74
2019-01-26T12:37:54.313Z,5.75
2019-01-26T12:38:54.811Z,5.76
2019-01-26T12:39:55.233Z,5.77
2019-01-26T12:40:55.863Z,5.77
2019-01-26T12:41:55.961Z,5.78
2019-01-26T12:42:56.078Z,5.80
2019-01-26T12:43:56.208Z,5.82
2019-01-26T12:44:56.337Z,5.84
2019-01-26T12:45:56.442Z,5.85
2019-01-26T12:46:56.576Z,5.87
2019-01-26T12:47:56.735Z,5.88
2019-01-26T12:48:56.900Z,5.89
2019-01-26T12:49:57.050Z,5.92
2019-01-26T12:50:57.233Z,5.92
2019-01-26T12:51:57.359Z,5.93
2019-01-26T12:52:57.483Z,5.95
2019-01-26T12:53:57.624Z,5.93
2019-01-26T12:54:57.797Z,5.95
2019-01-26T12:55:57.848Z,5.97
2019-01-26T12:56:58.008Z,5.97
2019-01-26T12:57:58.162Z,5.98
2019-01-26T12:58:58.267Z,5.99
2019-01-26T12:59:58.314Z,5.99
2019-01-26T13:00:58.413Z,5.98
2019-01-26T13:01:58.503Z,6.00
2019-01-26T13:02:58.577Z,6.01
2019-01-26T13:03:58.646Z,6.04
2019-01-26T13:04:58.763Z,6.05
2019-01-26T13:05:58.966Z,6.06
2019-01-26T13:06:58.780Z,6.05
2019-01-26T13:07:59.568Z,6.06
2019-01-26T13:08:59.665Z,6.05
2019-01-26T13:10:59.749Z,6.03
2019-01-26T13:11:59.978Z,6.03
2019-01-26T13:13:00.054Z,6.03
2019-01-26T13:14:00.130Z,6.04
2019-01-26T13:15:00.230Z,6.05
2019-01-26T13:17:00.364Z,6.05
2019-01-26T13:18:00.699Z,6.05
2019-01-26T13:19:00.774Z,6.03
2019-01-26T13:20:00.876Z,6.04
2019-01-26T13:21:00.962Z,6.07
2019-01-26T13:22:00.992Z,6.10
2019-01-26T13:23:01.097Z,6.13
2019-01-26T13:24:01.094Z,6.15
2019-01-26T13:25:01.553Z,6.18
2019-01-26T13:26:01.964Z,6.19
2019-01-26T13:27:02.106Z,6.21
2019-01-26T13:28:02.168Z,6.24
2019-01-26T13:29:02.345Z,6.25
2019-01-26T13:30:02.335Z,6.26
2019-01-26T13:31:02.316Z,6.26